Time;durP1;ratioP1;P1;durP2;ratioP2;P2;SDS_P1;SDS_P2;PMS_P1;PMS_P2;Temp;Humidity;BMP_temperature;BMP_pressure;BME280_temperature;BME280_humidity;BME280_pressure;Samples;Min_cycle;Max_cycle;Signal;HPM_P1;HPM_P2
2021/11/24 00:00:28;;;;;;;25.08;16.98;;;;;;;8.94;76.83;102963.75;4993332;28;20510;-75
2021/11/24 00:02:54;;;;;;;28.65;17.05;;;;;;;8.98;76.45;102964.78;5006383;28;20044;-74
2021/11/24 00:05:20;;;;;;;28.73;17.20;;;;;;;8.97;76.64;102966.50;4996209;28;20045;-76
2021/11/24 00:07:45;;;;;;;25.00;16.73;;;;;;;8.93;76.33;102967.16;5007626;28;20605;-76
2021/11/24 00:10:13;;;;;;;26.52;16.73;;;;;;;8.89;76.32;102966.13;4979369;28;20460;-74
2021/11/24 00:12:39;;;;;;;27.92;16.70;;;;;;;8.86;76.69;102952.94;4985283;28;20041;-75
2021/11/24 00:15:06;;;;;;;30.13;18.17;;;;;;;8.90;76.76;102959.22;4999791;28;20402;-74
2021/11/24 00:17:31;;;;;;;29.17;17.75;;;;;;;8.91;77.08;102956.66;5008069;28;20486;-75
2021/11/24 00:19:56;;;;;;;29.42;17.33;;;;;;;8.94;76.66;102955.94;5004458;28;20037;-75
2021/11/24 00:22:22;;;;;;;27.20;16.98;;;;;;;8.96;76.81;102950.00;4988245;28;20532;-75
2021/11/24 00:24:47;;;;;;;28.25;17.85;;;;;;;8.97;76.48;102948.28;5006225;28;20151;-75
2021/11/24 00:27:13;;;;;;;27.05;17.10;;;;;;;8.98;76.53;102941.38;4997332;28;20037;-75
2021/11/24 00:29:38;;;;;;;27.67;17.08;;;;;;;8.98;76.67;102949.19;5004287;28;20505;-74
2021/11/24 00:32:04;;;;;;;29.10;17.60;;;;;;;8.99;76.86;102953.59;4998248;28;20048;-74
2021/11/24 00:34:29;;;;;;;26.58;15.60;;;;;;;9.03;76.48;102951.22;4981862;28;20504;-74
2021/11/24 00:36:54;;;;;;;35.45;18.95;;;;;;;8.82;77.45;102947.50;5004705;28;20589;-73
2021/11/24 00:39:20;;;;;;;32.92;18.85;;;;;;;8.97;77.05;102945.69;5002795;28;20552;-75
2021/11/24 00:41:45;;;;;;;38.30;20.63;;;;;;;9.03;76.91;102946.00;4985454;28;20048;-74
2021/11/24 00:44:12;;;;;;;43.63;21.10;;;;;;;9.09;77.25;102935.91;4984540;28;20049;-74
2021/11/24 00:46:39;;;;;;;37.78;20.75;;;;;;;9.18;76.68;102938.13;5002397;28;20394;-74
2021/11/24 00:49:05;;;;;;;39.53;20.40;;;;;;;9.22;76.80;102930.53;5006085;28;20361;-74
2021/11/24 00:51:30;;;;;;;37.47;20.30;;;;;;;9.25;76.78;102935.91;4989591;28;20128;-74
2021/11/24 00:53:55;;;;;;;33.95;18.90;;;;;;;9.33;77.01;102938.94;4995909;28;20037;-75
2021/11/24 00:56:21;;;;;;;35.05;19.48;;;;;;;9.28;76.60;102929.97;4991785;28;20091;-75
2021/11/24 00:58:46;;;;;;;32.60;19.30;;;;;;;9.27;76.77;102936.00;5000280;28;20696;-75
2021/11/24 01:01:12;;;;;;;31.90;18.00;;;;;;;9.30;76.29;102933.56;5000185;28;20056;-75
2021/11/24 01:03:38;;;;;;;34.17;18.88;;;;;;;9.26;76.22;102924.69;4990507;28;20041;-74
2021/11/24 01:06:03;;;;;;;34.65;19.23;;;;;;;9.25;76.23;102930.72;5009057;28;20775;-74
2021/11/24 01:08:29;;;;;;;35.45;20.15;;;;;;;9.19;76.51;102926.91;4993195;28;20420;-74
2021/11/24 01:10:55;;;;;;;35.55;19.15;;;;;;;9.20;76.53;102931.31;4997772;28;20134;-73
2021/11/24 01:13:21;;;;;;;35.03;19.13;;;;;;;9.22;76.18;102919.25;4999240;28;20045;-74
2021/11/24 01:15:47;;;;;;;31.95;18.92;;;;;;;9.22;76.43;102914.94;5005916;28;20085;-75
2021/11/24 01:18:13;;;;;;;34.55;20.02;;;;;;;9.23;76.21;102914.13;5001755;28;20049;-75
2021/11/24 01:20:39;;;;;;;33.15;19.67;;;;;;;9.18;76.54;102909.50;4996933;28;20052;-75
2021/11/24 01:23:04;;;;;;;31.65;19.30;;;;;;;9.23;76.51;102905.41;5005955;28;20049;-74
2021/11/24 01:25:32;;;;;;;36.20;21.02;;;;;;;9.18;76.53;102906.91;5002007;28;20075;-74
2021/11/24 01:27:58;;;;;;;34.90;20.27;;;;;;;9.24;76.44;102904.59;5006331;28;20041;-76
2021/11/24 01:30:23;;;;;;;34.38;19.98;;;;;;;9.26;76.46;102901.28;4986754;28;20037;-75
2021/11/24 01:32:48;;;;;;;37.70;21.10;;;;;;;9.25;76.35;102902.09;5004184;28;20463;-75
2021/11/24 01:35:14;;;;;;;42.88;20.90;;;;;;;9.19;76.66;102904.38;4999970;28;20822;-74
2021/11/24 01:37:40;;;;;;;43.08;22.20;;;;;;;9.20;76.47;102900.06;4998279;28;20071;-74
2021/11/24 01:40:06;;;;;;;39.45;20.52;;;;;;;9.23;76.80;102906.31;5009254;28;20409;-74
2021/11/24 01:42:33;;;;;;;41.00;20.42;;;;;;;9.32;76.66;102898.09;4991452;28;20376;-75
2021/11/24 01:44:58;;;;;;;44.80;22.33;;;;;;;9.27;76.56;102904.78;5001517;28;20044;-75
2021/11/24 01:47:24;;;;;;;46.05;22.85;;;;;;;9.24;76.77;102894.19;4981047;28;21032;-75
2021/11/24 01:49:49;;;;;;;47.97;22.27;;;;;;;9.25;76.43;102896.88;5003175;28;20186;-74
2021/11/24 01:52:15;;;;;;;44.65;21.45;;;;;;;9.26;76.64;102901.28;5007453;28;20041;-74
2021/11/24 01:54:41;;;;;;;44.63;22.98;;;;;;;9.24;76.55;102891.59;4964769;28;20049;-75
2021/11/24 01:57:06;;;;;;;49.58;22.48;;;;;;;9.29;76.66;102897.91;5011197;28;20589;-75
2021/11/24 01:59:32;;;;;;;44.13;21.70;;;;;;;9.33;76.98;102897.28;4984309;28;20112;-74
2021/11/24 02:01:58;;;;;;;43.33;21.17;;;;;;;9.35;76.89;102899.13;4979303;28;20033;-74
2021/11/24 02:04:23;;;;;;;38.25;20.58;;;;;;;9.38;76.59;102885.38;4992181;28;20052;-74
2021/11/24 02:06:50;;;;;;;38.67;19.13;;;;;;;9.42;76.60;102881.22;4993825;28;20540;-74
2021/11/24 02:09:16;;;;;;;36.03;20.15;;;;;;;9.35;76.52;102886.09;5001881;28;20049;-75
2021/11/24 02:11:43;;;;;;;37.38;21.20;;;;;;;9.40;76.07;102878.53;4995345;28;21511;-74
2021/11/24 02:14:12;;;;;;;38.08;20.67;;;;;;;9.38;76.18;102874.97;4983626;28;20052;-75
2021/11/24 02:16:43;;;;;;;40.40;21.50;;;;;;;9.34;76.30;102875.63;4994153;28;20049;-75
2021/11/24 02:19:09;;;;;;;36.95;20.13;;;;;;;9.37;76.18;102875.78;5005066;28;20069;-74
2021/11/24 02:21:35;;;;;;;39.45;21.48;;;;;;;9.34;76.57;102867.81;4988835;28;20124;-75
2021/11/24 02:24:00;;;;;;;38.58;20.58;;;;;;;9.36;76.39;102859.28;5003909;28;20047;-75
2021/11/24 02:26:26;;;;;;;35.30;19.60;;;;;;;9.39;76.43;102855.94;4990319;28;20060;-74
2021/11/24 02:28:51;;;;;;;41.10;21.23;;;;;;;9.36;76.39;102853.16;5002146;28;20090;-75
2021/11/24 02:31:26;;;;;;;41.72;21.90;;;;;;;9.35;76.19;102846.16;5002408;28;20037;-74
2021/11/24 02:33:53;;;;;;;41.05;22.08;;;;;;;9.31;76.57;102846.84;4997990;28;20564;-74
2021/11/24 02:36:19;;;;;;;38.90;21.05;;;;;;;9.34;76.81;102839.16;4991559;28;20167;-74
2021/11/24 02:38:45;;;;;;;38.63;21.83;;;;;;;9.37;76.76;102839.34;4980877;28;20118;-76
2021/11/24 02:41:10;;;;;;;36.15;20.23;;;;;;;9.41;76.32;102832.56;4985327;28;20049;-74
2021/11/24 02:43:35;;;;;;;34.97;20.02;;;;;;;9.42;76.25;102829.16;4996913;28;20453;-74
2021/11/24 02:46:01;;;;;;;39.25;20.80;;;;;;;9.42;76.46;102821.34;4989205;28;20198;-76
2021/11/24 02:48:26;;;;;;;37.88;20.13;;;;;;;9.44;76.65;102812.78;4998634;28;20048;-75
2021/11/24 02:50:54;;;;;;;38.70;20.50;;;;;;;9.48;76.64;102814.72;4993875;28;20568;-74
2021/11/24 02:53:27;;;;;;;39.30;20.88;;;;;;;9.49;76.45;102810.41;5001648;28;20536;-75
2021/11/24 02:55:54;;;;;;;36.30;19.58;;;;;;;9.51;76.50;102809.69;5006402;28;20041;-75
2021/11/24 02:58:19;;;;;;;36.05;19.67;;;;;;;9.49;76.47;102805.19;4969142;28;20051;-74
2021/11/24 03:00:45;;;;;;;37.47;20.23;;;;;;;9.52;76.32;102801.03;4988685;28;20033;-74
2021/11/24 03:03:10;;;;;;;40.40;19.67;;;;;;;9.54;76.36;102804.59;5001054;28;20072;-76
2021/11/24 03:05:36;;;;;;;33.58;18.20;;;;;;;9.55;76.69;102798.56;5009518;28;20143;-74
2021/11/24 03:08:01;;;;;;;36.63;20.33;;;;;;;9.59;76.58;102797.91;5006593;28;20471;-75
2021/11/24 03:10:27;;;;;;;34.53;19.48;;;;;;;9.59;76.64;102792.69;4999211;28;20852;-74
2021/11/24 03:12:53;;;;;;;35.97;19.58;;;;;;;9.59;76.33;102794.41;4999773;28;20080;-74
2021/11/24 03:15:18;;;;;;;35.50;18.95;;;;;;;9.57;76.44;102789.13;5002685;28;20582;-74
2021/11/24 03:17:43;;;;;;;33.83;17.88;;;;;;;9.58;76.33;102790.00;5006659;28;21230;-74
2021/11/24 03:20:12;;;;;;;34.38;19.17;;;;;;;9.57;76.03;102785.66;4999855;28;20130;-75
2021/11/24 03:22:37;;;;;;;33.20;18.98;;;;;;;9.52;76.12;102777.59;4998318;28;20277;-76
2021/11/24 03:25:04;;;;;;;32.08;17.73;;;;;;;9.51;76.42;102773.22;5002481;28;20037;-74
2021/11/24 03:27:35;;;;;;;30.00;17.63;;;;;;;9.54;76.23;102768.16;5001444;28;20466;-76
2021/11/24 03:30:05;;;;;;;31.98;17.17;;;;;;;9.55;76.55;102767.34;4997674;28;20176;-75
2021/11/24 03:32:30;;;;;;;35.28;17.55;;;;;;;9.58;76.36;102758.75;4975108;28;20060;-75
2021/11/24 03:34:56;;;;;;;30.88;17.80;;;;;;;9.61;76.54;102757.22;5003511;28;20468;-74
2021/11/24 03:37:22;;;;;;;30.98;17.38;;;;;;;9.64;76.35;102744.31;4996341;28;20060;-75
2021/11/24 03:39:47;;;;;;;31.17;17.95;;;;;;;9.66;76.57;102753.09;4986253;28;20065;-75
2021/11/24 03:42:14;;;;;;;32.40;18.20;;;;;;;9.66;76.28;102752.22;4976366;28;20134;-75
2021/11/24 03:44:40;;;;;;;27.40;16.00;;;;;;;9.66;76.39;102742.69;4980913;28;20057;-75
2021/11/24 03:47:05;;;;;;;31.95;17.20;;;;;;;9.66;75.94;102741.78;5000012;28;20359;-74
2021/11/24 03:49:31;;;;;;;30.70;17.52;;;;;;;9.64;76.21;102740.81;5001749;28;20539;-74
2021/11/24 03:51:56;;;;;;;29.02;16.27;;;;;;;9.68;76.20;102737.56;5004027;28;20040;-74
2021/11/24 03:54:22;;;;;;;28.98;16.25;;;;;;;9.66;76.08;102727.06;4989270;28;20044;-74
2021/11/24 03:56:47;;;;;;;29.40;17.00;;;;;;;9.69;76.04;102728.94;5002345;28;20040;-74
2021/11/24 03:59:12;;;;;;;26.40;14.93;;;;;;;9.72;76.45;102729.94;4988470;28;20124;-75
2021/11/24 04:01:38;;;;;;;28.35;16.35;;;;;;;9.71;76.14;102728.16;5005203;28;20128;-74
2021/11/24 04:04:03;;;;;;;27.67;15.52;;;;;;;9.71;75.85;102733.38;5005270;28;20391;-76
2021/11/24 04:06:29;;;;;;;24.27;14.55;;;;;;;9.69;76.07;102727.22;4993642;28;20258;-74
2021/11/24 04:08:55;;;;;;;25.35;15.40;;;;;;;9.69;76.09;102728.94;4994267;28;20281;-74
2021/11/24 04:11:20;;;;;;;32.55;16.75;;;;;;;9.60;75.82;102725.88;4994016;28;20094;-74
2021/11/24 04:13:46;;;;;;;37.00;17.77;;;;;;;9.64;76.02;102728.69;5002516;28;20118;-73
2021/11/24 04:16:12;;;;;;;39.72;18.20;;;;;;;9.66;75.90;102726.16;4988397;28;20511;-74
2021/11/24 04:18:38;;;;;;;31.30;16.80;;;;;;;9.68;76.17;102725.44;5001602;28;20045;-75
2021/11/24 04:21:05;;;;;;;34.30;18.00;;;;;;;9.70;75.99;102720.25;4983029;28;20060;-74
2021/11/24 04:23:30;;;;;;;35.97;17.52;;;;;;;9.70;76.08;102715.94;4975339;28;20045;-74
2021/11/24 04:25:56;;;;;;;33.58;16.60;;;;;;;9.72;76.18;102714.31;5003524;28;20041;-74
2021/11/24 04:28:21;;;;;;;32.70;18.25;;;;;;;9.70;76.09;102705.53;4985843;28;20045;-75
2021/11/24 04:30:46;;;;;;;30.77;16.98;;;;;;;9.70;75.34;102702.94;4993544;28;20046;-74
2021/11/24 04:33:12;;;;;;;29.73;16.45;;;;;;;9.73;75.93;102704.78;5009469;28;20350;-73
2021/11/24 04:35:39;;;;;;;31.95;17.08;;;;;;;9.69;75.96;102705.50;4997000;28;20107;-75
2021/11/24 04:38:04;;;;;;;31.77;17.05;;;;;;;9.68;75.83;102694.19;4983159;28;20045;-75
2021/11/24 04:40:29;;;;;;;33.70;17.30;;;;;;;9.71;75.92;102689.09;4992210;28;20380;-75
2021/11/24 04:42:55;;;;;;;34.58;17.02;;;;;;;9.78;75.80;102691.16;4991286;28;20533;-75
2021/11/24 04:45:21;;;;;;;30.42;16.73;;;;;;;9.76;75.63;102695.41;5004448;28;20480;-75
2021/11/24 04:47:46;;;;;;;31.23;16.23;;;;;;;9.73;75.47;102691.78;5001971;28;20037;-75
2021/11/24 04:50:15;;;;;;;35.80;17.65;;;;;;;9.70;76.13;102682.09;5004004;28;20512;-75
2021/11/24 04:52:41;;;;;;;31.92;16.92;;;;;;;9.75;75.67;102684.94;4999427;28;20568;-75
2021/11/24 04:55:07;;;;;;;31.02;17.73;;;;;;;9.75;75.71;102679.72;4989802;28;20030;-75
2021/11/24 04:57:32;;;;;;;32.60;18.33;;;;;;;9.74;75.87;102678.81;5001071;28;20041;-75
2021/11/24 04:59:57;;;;;;;38.80;18.73;;;;;;;9.73;75.67;102671.84;4997254;28;20509;-75
2021/11/24 05:02:23;;;;;;;33.20;18.67;;;;;;;9.76;75.64;102673.66;4993814;28;20115;-75
2021/11/24 05:04:48;;;;;;;33.50;18.77;;;;;;;9.77;76.10;102672.84;4998345;28;20551;-75
2021/11/24 05:07:14;;;;;;;36.40;19.13;;;;;;;9.80;75.59;102675.59;4996426;28;20450;-74
2021/11/24 05:09:39;;;;;;;35.60;18.52;;;;;;;9.85;75.65;102671.50;5001428;28;20490;-76
2021/11/24 05:12:05;;;;;;;35.47;18.52;;;;;;;9.77;75.55;102671.13;4985636;28;20064;-75
2021/11/24 05:14:35;;;;;;;33.78;19.10;;;;;;;9.83;75.40;102664.41;4992945;28;20951;-75
2021/11/24 05:17:04;;;;;;;37.50;20.10;;;;;;;9.78;75.39;102667.72;4986487;28;20123;-75
2021/11/24 05:19:32;;;;;;;41.42;20.90;;;;;;;9.77;75.25;102663.31;4997461;28;20848;-75
2021/11/24 05:21:58;;;;;;;41.08;22.23;;;;;;;9.67;75.77;102658.53;4986654;28;20048;-74
2021/11/24 05:24:25;;;;;;;42.60;22.08;;;;;;;9.68;75.76;102655.13;4989235;28;20401;-75
2021/11/24 05:26:51;;;;;;;41.15;22.42;;;;;;;9.70;75.89;102645.63;5003597;28;20045;-75
2021/11/24 05:29:16;;;;;;;45.25;22.20;;;;;;;9.67;76.12;102655.03;4973613;28;20041;-75
2021/11/24 05:31:42;;;;;;;42.63;22.58;;;;;;;9.68;75.99;102649.91;4991391;28;20166;-75
2021/11/24 05:34:07;;;;;;;45.15;22.67;;;;;;;9.69;76.28;102648.19;5005208;28;20350;-75
2021/11/24 05:36:34;;;;;;;42.00;22.55;;;;;;;9.72;75.67;102650.91;4999047;28;20213;-75
2021/11/24 05:39:00;;;;;;;45.10;21.88;;;;;;;9.74;75.52;102651.88;4997761;28;20096;-75
2021/11/24 05:41:25;;;;;;;40.40;21.83;;;;;;;9.72;75.67;102658.72;5004340;28;20123;-75
2021/11/24 05:43:53;;;;;;;43.40;22.13;;;;;;;9.73;75.52;102655.31;5001604;28;20105;-75
2021/11/24 05:46:41;;;;;;;44.08;22.00;;;;;;;9.74;75.50;102654.50;4999948;28;20125;-74
2021/11/24 05:49:06;;;;;;;46.45;21.67;;;;;;;9.72;75.69;102653.53;4990387;28;20128;-75
2021/11/24 05:51:32;;;;;;;39.95;21.60;;;;;;;9.72;75.74;102653.53;5002336;28;20124;-74
2021/11/24 05:53:57;;;;;;;46.20;21.70;;;;;;;9.72;75.73;102649.22;5001360;28;21542;-76
2021/11/24 05:56:22;;;;;;;48.22;22.67;;;;;;;9.72;75.68;102654.41;4994940;28;20763;-75
2021/11/24 05:58:48;;;;;;;42.83;22.10;;;;;;;9.71;75.82;102642.22;5000395;28;20115;-74
2021/11/24 06:01:13;;;;;;;44.13;22.75;;;;;;;9.73;75.67;102643.19;4983656;28;20323;-74
2021/11/24 06:03:38;;;;;;;42.53;22.45;;;;;;;9.70;76.06;102634.31;5013838;28;20051;-75
2021/11/24 06:06:04;;;;;;;52.45;23.50;;;;;;;9.70;75.94;102631.72;5011208;28;20471;-75
2021/11/24 06:08:29;;;;;;;45.30;23.45;;;;;;;9.78;75.65;102623.44;4991392;28;20110;-74
2021/11/24 06:10:54;;;;;;;44.88;23.50;;;;;;;9.70;76.37;102629.13;5000880;28;20519;-74
2021/11/24 06:13:20;;;;;;;48.03;24.02;;;;;;;9.72;76.37;102620.56;5003653;28;20049;-75
2021/11/24 06:15:45;;;;;;;47.67;24.20;;;;;;;9.64;76.06;102619.31;5003722;28;20056;-75
2021/11/24 06:18:12;;;;;;;50.83;24.92;;;;;;;9.62;76.84;102620.97;4964401;28;20046;-76
2021/11/24 06:20:39;;;;;;;47.90;24.55;;;;;;;9.71;75.93;102631.78;4998213;28;20053;-75
2021/11/24 06:23:06;;;;;;;49.40;24.63;;;;;;;9.75;76.19;102618.09;5006307;28;20067;-75
2021/11/24 06:25:31;;;;;;;48.55;24.60;;;;;;;9.81;75.46;102619.19;4965555;28;20044;-75
2021/11/24 06:27:56;;;;;;;45.88;24.30;;;;;;;9.81;75.63;102624.41;5011382;28;20041;-76
2021/11/24 06:30:22;;;;;;;52.40;25.65;;;;;;;9.78;75.46;102613.00;4982026;28;21260;-74
2021/11/24 06:32:47;;;;;;;50.78;25.52;;;;;;;9.79;76.03;102611.31;4987036;28;20037;-75
2021/11/24 06:35:13;;;;;;;55.53;26.15;;;;;;;9.78;75.80;102604.31;4994827;28;20049;-75
2021/11/24 06:37:39;;;;;;;55.08;24.80;;;;;;;9.75;75.78;102607.69;4983851;28;20075;-75
2021/11/24 06:40:06;;;;;;;52.35;25.25;;;;;;;9.81;76.18;102603.56;5003808;28;20314;-74
2021/11/24 06:42:31;;;;;;;50.20;26.38;;;;;;;9.82;75.76;102601.00;4961295;28;20556;-76
2021/11/24 06:44:57;;;;;;;56.58;27.67;;;;;;;9.86;76.02;102597.72;4969929;28;20414;-76
2021/11/24 06:47:22;;;;;;;55.17;26.05;;;;;;;9.91;75.55;102592.72;5000305;28;20041;-75
2021/11/24 06:49:47;;;;;;;51.05;26.15;;;;;;;9.91;75.48;102593.59;5005613;28;20040;-75
2021/11/24 06:52:13;;;;;;;54.03;26.27;;;;;;;9.87;75.44;102594.31;4985317;28;20183;-75
2021/11/24 06:54:39;;;;;;;49.40;25.38;;;;;;;9.86;75.51;102594.22;4992434;28;20322;-74
2021/11/24 06:57:04;;;;;;;51.42;26.05;;;;;;;9.83;75.56;102594.09;4989197;28;20032;-76
2021/11/24 06:59:29;;;;;;;55.40;26.60;;;;;;;9.82;75.87;102587.97;4985618;28;20034;-75
2021/11/24 07:01:55;;;;;;;51.67;26.73;;;;;;;9.78;76.09;102586.97;4998416;28;20072;-75
2021/11/24 07:04:20;;;;;;;60.35;28.42;;;;;;;9.74;75.76;102579.84;4973345;28;20568;-76
2021/11/24 07:06:46;;;;;;;55.72;27.92;;;;;;;9.74;76.17;102577.25;5002035;28;20514;-76
2021/11/24 07:09:12;;;;;;;59.38;27.85;;;;;;;9.75;76.16;102578.16;5004576;28;20123;-75
2021/11/24 07:11:39;;;;;;;59.63;27.42;;;;;;;9.76;76.03;102575.59;4980110;28;20501;-75
2021/11/24 07:14:04;;;;;;;57.53;27.60;;;;;;;9.81;76.01;102582.72;5004979;28;20045;-74
2021/11/24 07:16:29;;;;;;;56.33;27.77;;;;;;;9.80;75.99;102583.56;4967311;28;20384;-75
2021/11/24 07:18:55;;;;;;;58.45;27.70;;;;;;;9.85;76.10;102579.41;4995318;28;20041;-74
2021/11/24 07:21:20;;;;;;;57.17;26.80;;;;;;;9.91;75.76;102588.41;4998442;28;20025;-75
2021/11/24 07:23:46;;;;;;;51.28;26.60;;;;;;;9.91;75.52;102584.91;4988818;28;20512;-75
2021/11/24 07:26:12;;;;;;;54.53;27.33;;;;;;;9.91;75.65;102587.50;4997550;28;20072;-73
2021/11/24 07:28:38;;;;;;;56.65;27.20;;;;;;;9.90;75.57;102588.31;4993584;28;20959;-75
2021/11/24 07:31:03;;;;;;;53.85;26.55;;;;;;;9.88;75.72;102584.78;4976820;28;20028;-76
2021/11/24 07:33:29;;;;;;;54.75;27.38;;;;;;;9.86;75.51;102579.50;5001115;28;20701;-75
2021/11/24 07:35:54;;;;;;;55.28;27.33;;;;;;;9.87;76.12;102588.22;4985805;28;20097;-75
2021/11/24 07:38:19;;;;;;;54.72;27.52;;;;;;;9.87;75.70;102583.88;4989629;28;20048;-76
2021/11/24 07:40:45;;;;;;;55.97;27.40;;;;;;;9.91;75.82;102592.72;4993291;28;20598;-76
2021/11/24 07:43:14;;;;;;;61.25;28.25;;;;;;;9.90;75.75;102584.00;4994343;28;20052;-74
2021/11/24 07:45:39;;;;;;;57.90;27.50;;;;;;;9.96;75.59;102576.44;4983776;28;20048;-75
2021/11/24 07:48:05;;;;;;;51.72;26.67;;;;;;;9.95;76.01;102577.28;4992556;28;20041;-75
2021/11/24 07:50:31;;;;;;;53.83;26.50;;;;;;;10.02;75.62;102583.63;4973443;28;20051;-76
2021/11/24 07:52:56;;;;;;;52.50;26.20;;;;;;;10.03;75.90;102583.72;4999325;28;20052;-76
2021/11/24 07:55:22;;;;;;;50.35;26.10;;;;;;;10.05;75.69;102579.47;4996986;28;20083;-75
2021/11/24 07:57:47;;;;;;;51.63;26.38;;;;;;;10.05;75.37;102574.25;4975554;28;20036;-74
2021/11/24 08:00:14;;;;;;;51.33;26.45;;;;;;;10.03;75.23;102573.28;4994456;28;20091;-74
2021/11/24 08:02:40;;;;;;;53.70;26.73;;;;;;;10.06;75.51;102565.59;4992890;28;20041;-76
2021/11/24 08:05:06;;;;;;;49.50;26.33;;;;;;;10.01;75.43;102559.28;4998595;28;20152;-76
2021/11/24 08:07:36;;;;;;;49.28;26.45;;;;;;;10.08;75.14;102560.44;4981609;28;20316;-75
2021/11/24 08:10:06;;;;;;;52.20;26.30;;;;;;;10.12;75.27;102558.03;4971330;28;20056;-75
2021/11/24 08:12:32;;;;;;;49.13;25.75;;;;;;;10.20;75.16;102554.88;5003256;28;20582;-76
2021/11/24 08:14:57;;;;;;;49.40;26.08;;;;;;;10.18;74.98;102556.56;4978837;28;20083;-76
2021/11/24 08:17:22;;;;;;;48.47;25.48;;;;;;;10.10;75.39;102554.50;4968876;28;20875;-76
2021/11/24 08:19:49;;;;;;;58.22;25.50;;;;;;;10.17;74.80;102558.28;4993726;28;20068;-75
2021/11/24 08:22:14;;;;;;;49.33;25.63;;;;;;;10.26;74.79;102555.13;4983112;28;20092;-76
2021/11/24 08:24:40;;;;;;;48.85;25.95;;;;;;;10.31;74.94;102549.28;5000738;28;20409;-75
2021/11/24 08:27:06;;;;;;;46.17;24.67;;;;;;;10.31;74.60;102549.28;4997037;28;20911;-75
2021/11/24 08:29:32;;;;;;;44.22;24.02;;;;;;;10.36;74.77;102542.56;5004024;28;20373;-76
2021/11/24 08:31:58;;;;;;;43.47;24.60;;;;;;;10.37;74.67;102549.53;4980259;28;20053;-75
2021/11/24 08:34:23;;;;;;;47.70;24.95;;;;;;;10.30;74.85;102547.53;4985459;28;20107;-78
2021/11/24 08:36:50;;;;;;;44.50;23.70;;;;;;;10.31;74.88;102536.25;4997488;28;20420;-76
2021/11/24 08:39:16;;;;;;;46.08;23.95;;;;;;;10.18;74.69;102528.78;4987187;28;20067;-79
2021/11/24 08:41:42;;;;;;;46.92;23.10;;;;;;;10.32;74.04;102532.81;4991745;28;20538;-75
2021/11/24 08:44:07;;;;;;;40.95;22.65;;;;;;;10.38;74.04;102527.84;4977819;28;20123;-77
2021/11/24 08:46:32;;;;;;;39.70;21.75;;;;;;;10.43;73.87;102526.31;5006654;28;20322;-77
2021/11/24 08:48:58;;;;;;;40.92;21.15;;;;;;;10.48;73.29;102529.13;4988448;28;20141;-77
2021/11/24 08:51:23;;;;;;;36.92;21.88;;;;;;;10.57;73.23;102526.88;5001847;28;20249;-77
2021/11/24 08:53:48;;;;;;;39.15;21.90;;;;;;;10.60;73.53;102523.50;4992413;28;20189;-76
2021/11/24 08:56:14;;;;;;;39.20;22.33;;;;;;;10.63;73.52;102513.19;5001473;28;20055;-77
2021/11/24 08:58:40;;;;;;;36.03;20.60;;;;;;;10.66;73.83;102526.38;4998488;28;20037;-75
2021/11/24 09:01:05;;;;;;;35.60;20.25;;;;;;;10.70;73.48;102525.63;5000982;28;20830;-76
2021/11/24 09:03:31;;;;;;;35.30;19.30;;;;;;;10.73;72.93;102520.56;4976091;28;20894;-77
2021/11/24 09:05:56;;;;;;;33.63;18.88;;;;;;;10.77;72.48;102518.13;4990771;28;20045;-76
2021/11/24 09:08:22;;;;;;;37.42;19.15;;;;;;;10.77;72.44;102512.00;4979250;28;20508;-77
2021/11/24 09:10:47;;;;;;;33.25;20.20;;;;;;;10.83;71.84;102512.25;4982838;28;20084;-76
2021/11/24 09:13:13;;;;;;;33.10;20.00;;;;;;;10.89;72.49;102509.88;4995463;28;20711;-77
2021/11/24 09:15:40;;;;;;;36.90;19.48;;;;;;;10.85;72.00;102515.81;4995349;28;20036;-74
2021/11/24 09:18:05;;;;;;;35.55;19.67;;;;;;;10.88;71.55;102516.81;5000338;28;20501;-74
2021/11/24 09:20:33;;;;;;;30.50;17.70;;;;;;;10.90;71.99;102514.25;4977633;28;20029;-75
2021/11/24 09:22:58;;;;;;;29.45;17.48;;;;;;;10.95;71.17;102515.31;4983647;28;20095;-75
2021/11/24 09:25:26;;;;;;;31.08;17.13;;;;;;;10.95;71.10;102512.72;4981516;28;20041;-75
2021/11/24 09:30:19;;;;;;;31.30;16.85;;;;;;;11.08;70.46;102495.78;5001470;28;20107;-76
2021/11/24 09:32:45;;;;;;;27.58;16.40;;;;;;;11.06;70.10;102493.13;5007312;28;20555;-76
2021/11/24 09:35:12;;;;;;;31.45;15.80;;;;;;;11.10;69.83;102500.22;5004925;28;20386;-76
2021/11/24 09:37:37;;;;;;;25.08;14.90;;;;;;;11.11;69.43;102490.66;4977891;28;20105;-76
2021/11/24 09:40:05;;;;;;;24.92;15.13;;;;;;;11.16;69.04;102490.00;4999363;28;20041;-77
2021/11/24 09:42:31;;;;;;;24.75;15.05;;;;;;;11.18;69.06;102484.84;5003894;28;20037;-76
2021/11/24 09:44:58;;;;;;;29.17;15.43;;;;;;;11.18;69.30;102483.13;4991680;28;20084;-76
2021/11/24 09:47:25;;;;;;;30.95;15.85;;;;;;;11.22;69.28;102491.97;5005105;28;20092;-75
2021/11/24 09:49:56;;;;;;;27.77;16.17;;;;;;;11.09;69.69;102487.13;4983553;28;20036;-76
2021/11/24 09:52:22;;;;;;;29.02;16.38;;;;;;;11.05;69.94;102483.50;4986296;28;20049;-75
2021/11/24 09:54:51;;;;;;;33.33;16.75;;;;;;;11.16;69.32;102481.31;5008497;28;20068;-77
2021/11/24 09:57:23;;;;;;;29.50;16.08;;;;;;;11.12;68.78;102477.69;5004422;28;20430;-76
2021/11/24 09:59:50;;;;;;;36.75;16.58;;;;;;;11.18;69.53;102474.41;4969388;28;20428;-76
2021/11/24 10:02:16;;;;;;;28.27;15.85;;;;;;;11.15;69.43;102476.94;5010151;28;20056;-77
2021/11/24 10:04:43;;;;;;;28.38;16.23;;;;;;;11.17;70.55;102478.72;4997739;28;20121;-76
2021/11/24 10:07:13;;;;;;;29.20;16.38;;;;;;;11.13;69.67;102474.25;5002298;28;20115;-76
2021/11/24 10:09:40;;;;;;;28.13;16.02;;;;;;;11.08;69.45;102477.53;4976009;28;20052;-76
2021/11/24 10:12:06;;;;;;;26.15;16.58;;;;;;;11.08;70.31;102472.31;4997794;28;20037;-76
2021/11/24 10:14:32;;;;;;;31.23;17.42;;;;;;;11.03;70.30;102482.59;5002794;28;21468;-75
2021/11/24 10:17:08;;;;;;;28.70;16.85;;;;;;;11.03;70.08;102474.75;5003379;28;20056;-75
2021/11/24 10:19:35;;;;;;;25.23;16.30;;;;;;;11.07;69.99;102460.97;4976605;28;20102;-75
2021/11/24 10:22:06;;;;;;;30.40;16.45;;;;;;;10.92;70.88;102456.06;4976988;28;20102;-77
2021/11/24 10:24:40;;;;;;;26.88;16.33;;;;;;;10.95;69.76;102448.38;5001607;28;20611;-76
2021/11/24 10:27:08;;;;;;;26.65;16.45;;;;;;;11.03;69.34;102442.53;5009379;28;20045;-74
2021/11/24 10:29:34;;;;;;;26.35;16.20;;;;;;;11.02;70.19;102443.38;4999924;28;20110;-76
2021/11/24 10:32:05;;;;;;;25.48;15.90;;;;;;;11.06;70.22;102427.88;5000246;28;20037;-76
2021/11/24 10:34:33;;;;;;;28.98;15.80;;;;;;;11.08;70.18;102434.03;4987325;28;20232;-76
2021/11/24 10:37:15;;;;;;;25.10;16.15;;;;;;;11.10;70.51;102426.28;5009348;28;20040;-75
2021/11/24 10:39:51;;;;;;;23.35;14.35;;;;;;;11.13;70.13;102415.94;4972714;28;20049;-77
2021/11/24 10:42:22;;;;;;;24.60;15.27;;;;;;;11.07;69.74;102414.00;4992046;28;20048;-76
2021/11/24 10:45:07;;;;;;;27.00;15.25;;;;;;;11.07;69.82;102411.38;4995710;28;20084;-75
2021/11/24 10:47:34;;;;;;;20.95;13.15;;;;;;;11.17;68.76;102407.38;4967296;28;20231;-75
2021/11/24 10:50:03;;;;;;;24.30;13.40;;;;;;;11.13;68.71;102408.09;4967710;28;20045;-75
2021/11/24 10:52:36;;;;;;;21.75;13.48;;;;;;;11.13;68.22;102400.28;4982424;28;20102;-76
2021/11/24 10:55:11;;;;;;;20.77;13.18;;;;;;;11.16;68.02;102403.00;5000157;28;20926;-75
2021/11/24 10:58:07;;;;;;;20.90;13.25;;;;;;;11.15;67.96;102391.69;4990429;28;20119;-71
2021/11/24 11:00:37;;;;;;;23.33;12.93;;;;;;;11.16;67.20;102385.59;5004292;28;20041;-75
2021/11/24 11:03:02;;;;;;;21.50;12.63;;;;;;;11.29;68.13;102382.56;4987366;28;20041;-76
2021/11/24 11:05:28;;;;;;;21.48;12.48;;;;;;;11.34;66.73;102378.41;4999042;28;20094;-75
2021/11/24 11:07:58;;;;;;;18.95;11.85;;;;;;;11.44;66.04;102369.16;4996167;28;20876;-74
2021/11/24 11:10:25;;;;;;;18.48;12.27;;;;;;;11.46;65.34;102364.91;4982119;28;20524;-76
2021/11/24 11:12:57;;;;;;;19.42;12.18;;;;;;;11.48;65.17;102360.59;4996906;28;20035;-76